sensor_id;sensor_type;location;lat;lon;timestamp;P1;durP1;ratioP1;P2;durP2;ratioP2
27558;SDS011;15002;52.028;5.670;2024-03-25T00:00:11;15.35;;;3.00;;
27558;SDS011;15002;52.028;5.670;2024-03-25T00:02:38;16.35;;;3.50;;
27558;SDS011;15002;52.028;5.670;2024-03-25T00:05:04;19.95;;;2.92;;
27558;SDS011;15002;52.028;5.670;2024-03-25T00:07:32;15.25;;;2.72;;
27558;SDS011;15002;52.028;5.670;2024-03-25T00:09:57;16.48;;;3.58;;
27558;SDS011;15002;52.028;5.670;2024-03-25T00:12:24;14.95;;;2.55;;
27558;SDS011;15002;52.028;5.670;2024-03-25T00:14:51;26.73;;;3.42;;
27558;SDS011;15002;52.028;5.670;2024-03-25T00:17:16;16.30;;;2.85;;
27558;SDS011;15002;52.028;5.670;2024-03-25T00:19:42;12.77;;;2.80;;
27558;SDS011;15002;52.028;5.670;2024-03-25T00:22:13;15.00;;;3.00;;
27558;SDS011;15002;52.028;5.670;2024-03-25T00:24:39;19.92;;;3.38;;
27558;SDS011;15002;52.028;5.670;2024-03-25T00:27:04;19.38;;;2.90;;
27558;SDS011;15002;52.028;5.670;2024-03-25T00:29:30;11.35;;;2.50;;
27558;SDS011;15002;52.028;5.670;2024-03-25T00:31:55;12.75;;;3.08;;
27558;SDS011;15002;52.028;5.670;2024-03-25T00:34:21;20.38;;;2.90;;
27558;SDS011;15002;52.028;5.670;2024-03-25T00:36:47;16.85;;;3.88;;
27558;SDS011;15002;52.028;5.670;2024-03-25T00:39:13;18.35;;;3.00;;
27558;SDS011;15002;52.028;5.670;2024-03-25T00:41:38;15.95;;;2.70;;
27558;SDS011;15002;52.028;5.670;2024-03-25T00:44:04;16.55;;;3.50;;
27558;SDS011;15002;52.028;5.670;2024-03-25T00:46:30;17.00;;;2.88;;
27558;SDS011;15002;52.028;5.670;2024-03-25T00:48:55;15.20;;;2.78;;
27558;SDS011;15002;52.028;5.670;2024-03-25T00:51:21;12.40;;;2.85;;
27558;SDS011;15002;52.028;5.670;2024-03-25T00:53:47;12.93;;;3.10;;
27558;SDS011;15002;52.028;5.670;2024-03-25T00:56:12;13.18;;;2.72;;
27558;SDS011;15002;52.028;5.670;2024-03-25T00:58:38;16.00;;;3.20;;
27558;SDS011;15002;52.028;5.670;2024-03-25T01:01:04;16.48;;;3.10;;
27558;SDS011;15002;52.028;5.670;2024-03-25T01:03:29;17.58;;;2.92;;
27558;SDS011;15002;52.028;5.670;2024-03-25T01:05:55;15.82;;;3.00;;
27558;SDS011;15002;52.028;5.670;2024-03-25T01:08:20;9.90;;;2.70;;
27558;SDS011;15002;52.028;5.670;2024-03-25T01:10:46;18.40;;;2.95;;
27558;SDS011;15002;52.028;5.670;2024-03-25T01:13:12;16.83;;;3.20;;
27558;SDS011;15002;52.028;5.670;2024-03-25T01:15:37;15.85;;;3.55;;
27558;SDS011;15002;52.028;5.670;2024-03-25T01:18:03;22.40;;;3.67;;
27558;SDS011;15002;52.028;5.670;2024-03-25T01:20:29;15.02;;;3.55;;
27558;SDS011;15002;52.028;5.670;2024-03-25T01:22:54;20.88;;;2.95;;
27558;SDS011;15002;52.028;5.670;2024-03-25T01:25:20;18.17;;;3.13;;
27558;SDS011;15002;52.028;5.670;2024-03-25T01:27:45;19.15;;;3.55;;
27558;SDS011;15002;52.028;5.670;2024-03-25T01:30:11;20.50;;;3.72;;
27558;SDS011;15002;52.028;5.670;2024-03-25T01:32:37;17.98;;;3.17;;
27558;SDS011;15002;52.028;5.670;2024-03-25T01:35:03;18.13;;;3.25;;
27558;SDS011;15002;52.028;5.670;2024-03-25T01:37:28;21.10;;;3.63;;
27558;SDS011;15002;52.028;5.670;2024-03-25T01:39:54;19.20;;;3.25;;
27558;SDS011;15002;52.028;5.670;2024-03-25T01:42:20;16.98;;;3.47;;
27558;SDS011;15002;52.028;5.670;2024-03-25T01:44:45;16.13;;;3.10;;
27558;SDS011;15002;52.028;5.670;2024-03-25T01:47:12;19.38;;;2.80;;
27558;SDS011;15002;52.028;5.670;2024-03-25T01:49:38;20.08;;;3.35;;
27558;SDS011;15002;52.028;5.670;2024-03-25T01:52:04;18.60;;;3.28;;
27558;SDS011;15002;52.028;5.670;2024-03-25T01:54:31;23.17;;;3.72;;
27558;SDS011;15002;52.028;5.670;2024-03-25T01:56:57;16.02;;;2.90;;
27558;SDS011;15002;52.028;5.670;2024-03-25T01:59:23;16.20;;;2.95;;
27558;SDS011;15002;52.028;5.670;2024-03-25T02:01:50;19.13;;;3.88;;
27558;SDS011;15002;52.028;5.670;2024-03-25T02:04:16;23.52;;;4.22;;
27558;SDS011;15002;52.028;5.670;2024-03-25T02:06:41;22.73;;;3.28;;
27558;SDS011;15002;52.028;5.670;2024-03-25T02:09:09;18.42;;;4.10;;
27558;SDS011;15002;52.028;5.670;2024-03-25T02:11:37;14.85;;;3.58;;
27558;SDS011;15002;52.028;5.670;2024-03-25T02:14:04;19.85;;;3.70;;
27558;SDS011;15002;52.028;5.670;2024-03-25T02:16:30;21.80;;;3.72;;
27558;SDS011;15002;52.028;5.670;2024-03-25T02:18:56;20.70;;;3.80;;
27558;SDS011;15002;52.028;5.670;2024-03-25T02:21:21;21.40;;;3.58;;
27558;SDS011;15002;52.028;5.670;2024-03-25T02:23:47;28.45;;;4.20;;
27558;SDS011;15002;52.028;5.670;2024-03-25T02:26:15;22.95;;;3.83;;
27558;SDS011;15002;52.028;5.670;2024-03-25T02:28:41;14.43;;;3.28;;
27558;SDS011;15002;52.028;5.670;2024-03-25T02:31:06;17.17;;;3.45;;
27558;SDS011;15002;52.028;5.670;2024-03-25T02:33:32;26.75;;;4.15;;
27558;SDS011;15002;52.028;5.670;2024-03-25T02:35:58;23.45;;;3.85;;
27558;SDS011;15002;52.028;5.670;2024-03-25T02:38:23;19.60;;;4.30;;
27558;SDS011;15002;52.028;5.670;2024-03-25T02:40:49;20.92;;;3.53;;
27558;SDS011;15002;52.028;5.670;2024-03-25T02:43:15;23.42;;;3.83;;
27558;SDS011;15002;52.028;5.670;2024-03-25T02:45:44;21.25;;;4.32;;
27558;SDS011;15002;52.028;5.670;2024-03-25T02:48:10;17.92;;;3.38;;
27558;SDS011;15002;52.028;5.670;2024-03-25T02:50:36;19.05;;;3.53;;
27558;SDS011;15002;52.028;5.670;2024-03-25T02:53:01;20.80;;;3.22;;
27558;SDS011;15002;52.028;5.670;2024-03-25T02:55:27;27.60;;;3.58;;
27558;SDS011;15002;52.028;5.670;2024-03-25T02:57:52;19.52;;;3.47;;
27558;SDS011;15002;52.028;5.670;2024-03-25T03:00:18;18.85;;;3.42;;
27558;SDS011;15002;52.028;5.670;2024-03-25T03:02:44;22.95;;;3.80;;
27558;SDS011;15002;52.028;5.670;2024-03-25T03:05:09;18.00;;;3.35;;
27558;SDS011;15002;52.028;5.670;2024-03-25T03:07:35;21.73;;;4.28;;
27558;SDS011;15002;52.028;5.670;2024-03-25T03:10:00;17.90;;;3.80;;
27558;SDS011;15002;52.028;5.670;2024-03-25T03:12:26;17.90;;;3.28;;
27558;SDS011;15002;52.028;5.670;2024-03-25T03:14:52;18.33;;;3.38;;
27558;SDS011;15002;52.028;5.670;2024-03-25T03:17:17;15.07;;;3.72;;
27558;SDS011;15002;52.028;5.670;2024-03-25T03:19:43;15.27;;;3.08;;
27558;SDS011;15002;52.028;5.670;2024-03-25T03:22:10;18.00;;;3.35;;
27558;SDS011;15002;52.028;5.670;2024-03-25T03:24:35;16.92;;;3.85;;
27558;SDS011;15002;52.028;5.670;2024-03-25T03:27:01;13.60;;;3.42;;
27558;SDS011;15002;52.028;5.670;2024-03-25T03:29:26;17.23;;;4.07;;
27558;SDS011;15002;52.028;5.670;2024-03-25T03:31:52;20.52;;;5.20;;
27558;SDS011;15002;52.028;5.670;2024-03-25T03:34:18;20.45;;;4.47;;
27558;SDS011;15002;52.028;5.670;2024-03-25T03:36:43;17.08;;;4.18;;
27558;SDS011;15002;52.028;5.670;2024-03-25T03:39:09;13.73;;;4.15;;
27558;SDS011;15002;52.028;5.670;2024-03-25T03:41:34;24.48;;;4.53;;
27558;SDS011;15002;52.028;5.670;2024-03-25T03:44:01;15.07;;;4.70;;
27558;SDS011;15002;52.028;5.670;2024-03-25T03:46:26;19.67;;;5.03;;
27558;SDS011;15002;52.028;5.670;2024-03-25T03:48:52;23.30;;;5.25;;
27558;SDS011;15002;52.028;5.670;2024-03-25T03:51:18;16.48;;;4.88;;
27558;SDS011;15002;52.028;5.670;2024-03-25T03:53:43;20.13;;;5.03;;
27558;SDS011;15002;52.028;5.670;2024-03-25T03:56:09;19.73;;;5.18;;
27558;SDS011;15002;52.028;5.670;2024-03-25T03:58:34;19.23;;;5.28;;
27558;SDS011;15002;52.028;5.670;2024-03-25T04:01:00;16.58;;;5.75;;
27558;SDS011;15002;52.028;5.670;2024-03-25T04:03:26;16.73;;;4.78;;
27558;SDS011;15002;52.028;5.670;2024-03-25T04:05:52;25.40;;;5.90;;
27558;SDS011;15002;52.028;5.670;2024-03-25T04:08:18;19.73;;;5.57;;
27558;SDS011;15002;52.028;5.670;2024-03-25T04:10:44;17.73;;;4.95;;
27558;SDS011;15002;52.028;5.670;2024-03-25T04:13:10;18.13;;;4.93;;
27558;SDS011;15002;52.028;5.670;2024-03-25T04:15:38;20.80;;;5.70;;
27558;SDS011;15002;52.028;5.670;2024-03-25T04:18:04;12.18;;;5.10;;
27558;SDS011;15002;52.028;5.670;2024-03-25T04:20:40;12.07;;;4.93;;
27558;SDS011;15002;52.028;5.670;2024-03-25T04:23:07;19.60;;;6.03;;
27558;SDS011;15002;52.028;5.670;2024-03-25T04:25:33;11.57;;;5.47;;
27558;SDS011;15002;52.028;5.670;2024-03-25T04:28:02;18.52;;;5.03;;
27558;SDS011;15002;52.028;5.670;2024-03-25T04:30:28;20.77;;;5.45;;
27558;SDS011;15002;52.028;5.670;2024-03-25T04:32:54;13.30;;;4.43;;
27558;SDS011;15002;52.028;5.670;2024-03-25T04:35:19;12.13;;;4.30;;
27558;SDS011;15002;52.028;5.670;2024-03-25T04:37:45;15.40;;;4.40;;
27558;SDS011;15002;52.028;5.670;2024-03-25T04:40:11;15.18;;;3.85;;
27558;SDS011;15002;52.028;5.670;2024-03-25T04:42:39;11.75;;;4.18;;
27558;SDS011;15002;52.028;5.670;2024-03-25T04:45:05;23.42;;;4.43;;
27558;SDS011;15002;52.028;5.670;2024-03-25T04:47:31;14.55;;;4.75;;
27558;SDS011;15002;52.028;5.670;2024-03-25T04:49:57;10.75;;;4.30;;
27558;SDS011;15002;52.028;5.670;2024-03-25T04:52:22;18.17;;;4.72;;
27558;SDS011;15002;52.028;5.670;2024-03-25T04:54:49;18.08;;;5.13;;
27558;SDS011;15002;52.028;5.670;2024-03-25T04:57:15;16.88;;;4.63;;
27558;SDS011;15002;52.028;5.670;2024-03-25T04:59:41;16.83;;;4.63;;
27558;SDS011;15002;52.028;5.670;2024-03-25T05:02:06;16.38;;;5.20;;
27558;SDS011;15002;52.028;5.670;2024-03-25T05:04:32;20.92;;;5.10;;
27558;SDS011;15002;52.028;5.670;2024-03-25T05:06:58;16.77;;;4.57;;
27558;SDS011;15002;52.028;5.670;2024-03-25T05:09:23;19.90;;;5.20;;
27558;SDS011;15002;52.028;5.670;2024-03-25T05:11:49;17.42;;;5.38;;
27558;SDS011;15002;52.028;5.670;2024-03-25T05:14:15;20.63;;;6.55;;
27558;SDS011;15002;52.028;5.670;2024-03-25T05:16:41;19.67;;;5.18;;
27558;SDS011;15002;52.028;5.670;2024-03-25T05:19:06;19.60;;;5.47;;
27558;SDS011;15002;52.028;5.670;2024-03-25T05:21:32;22.73;;;5.97;;
27558;SDS011;15002;52.028;5.670;2024-03-25T05:23:58;22.60;;;5.10;;
27558;SDS011;15002;52.028;5.670;2024-03-25T05:26:23;17.70;;;5.93;;
27558;SDS011;15002;52.028;5.670;2024-03-25T05:28:53;22.88;;;5.78;;
27558;SDS011;15002;52.028;5.670;2024-03-25T05:31:19;21.50;;;5.68;;
27558;SDS011;15002;52.028;5.670;2024-03-25T05:33:45;17.67;;;5.05;;
27558;SDS011;15002;52.028;5.670;2024-03-25T05:36:10;16.33;;;4.95;;
27558;SDS011;15002;52.028;5.670;2024-03-25T05:38:36;12.13;;;4.93;;
27558;SDS011;15002;52.028;5.670;2024-03-25T05:41:02;28.92;;;5.88;;
27558;SDS011;15002;52.028;5.670;2024-03-25T05:43:27;18.08;;;5.10;;
27558;SDS011;15002;52.028;5.670;2024-03-25T05:45:53;18.23;;;5.97;;
27558;SDS011;15002;52.028;5.670;2024-03-25T05:48:19;21.40;;;6.32;;
27558;SDS011;15002;52.028;5.670;2024-03-25T05:50:45;22.70;;;5.63;;
27558;SDS011;15002;52.028;5.670;2024-03-25T05:53:11;21.65;;;6.20;;
27558;SDS011;15002;52.028;5.670;2024-03-25T05:55:37;18.83;;;5.32;;
27558;SDS011;15002;52.028;5.670;2024-03-25T05:58:03;20.35;;;5.75;;
27558;SDS011;15002;52.028;5.670;2024-03-25T06:00:29;18.40;;;6.43;;
27558;SDS011;15002;52.028;5.670;2024-03-25T06:02:58;19.23;;;5.35;;
27558;SDS011;15002;52.028;5.670;2024-03-25T06:05:23;25.38;;;6.13;;
27558;SDS011;15002;52.028;5.670;2024-03-25T06:07:49;19.80;;;5.85;;
27558;SDS011;15002;52.028;5.670;2024-03-25T06:10:15;22.20;;;6.30;;
27558;SDS011;15002;52.028;5.670;2024-03-25T06:12:40;15.93;;;6.00;;
27558;SDS011;15002;52.028;5.670;2024-03-25T06:15:06;16.52;;;6.85;;
27558;SDS011;15002;52.028;5.670;2024-03-25T06:17:32;15.93;;;5.65;;
27558;SDS011;15002;52.028;5.670;2024-03-25T06:19:58;14.68;;;5.15;;
27558;SDS011;15002;52.028;5.670;2024-03-25T06:22:24;14.82;;;5.50;;
27558;SDS011;15002;52.028;5.670;2024-03-25T06:24:49;13.93;;;5.22;;
27558;SDS011;15002;52.028;5.670;2024-03-25T06:27:15;16.40;;;4.50;;
27558;SDS011;15002;52.028;5.670;2024-03-25T06:29:41;17.80;;;5.25;;
27558;SDS011;15002;52.028;5.670;2024-03-25T06:32:08;17.98;;;5.28;;
27558;SDS011;15002;52.028;5.670;2024-03-25T06:34:52;18.25;;;5.00;;
27558;SDS011;15002;52.028;5.670;2024-03-25T06:37:18;15.60;;;4.75;;
27558;SDS011;15002;52.028;5.670;2024-03-25T06:39:43;19.52;;;4.95;;
27558;SDS011;15002;52.028;5.670;2024-03-25T06:42:09;15.80;;;4.75;;
27558;SDS011;15002;52.028;5.670;2024-03-25T06:44:35;19.15;;;5.35;;
27558;SDS011;15002;52.028;5.670;2024-03-25T06:47:00;18.38;;;5.95;;
27558;SDS011;15002;52.028;5.670;2024-03-25T06:49:26;16.20;;;5.47;;
27558;SDS011;15002;52.028;5.670;2024-03-25T06:51:52;15.63;;;4.75;;
27558;SDS011;15002;52.028;5.670;2024-03-25T06:54:17;12.63;;;5.63;;
27558;SDS011;15002;52.028;5.670;2024-03-25T06:56:43;23.15;;;6.55;;
27558;SDS011;15002;52.028;5.670;2024-03-25T06:59:08;14.82;;;5.82;;
27558;SDS011;15002;52.028;5.670;2024-03-25T07:01:34;21.85;;;6.00;;
27558;SDS011;15002;52.028;5.670;2024-03-25T07:04:00;15.55;;;6.28;;
27558;SDS011;15002;52.028;5.670;2024-03-25T07:06:26;13.50;;;5.70;;
27558;SDS011;15002;52.028;5.670;2024-03-25T07:08:51;16.25;;;6.13;;
27558;SDS011;15002;52.028;5.670;2024-03-25T07:11:17;15.50;;;6.18;;
27558;SDS011;15002;52.028;5.670;2024-03-25T07:13:42;19.05;;;5.57;;
27558;SDS011;15002;52.028;5.670;2024-03-25T07:16:08;15.60;;;6.13;;
27558;SDS011;15002;52.028;5.670;2024-03-25T07:18:34;25.38;;;6.90;;
27558;SDS011;15002;52.028;5.670;2024-03-25T07:20:59;15.00;;;5.53;;
27558;SDS011;15002;52.028;5.670;2024-03-25T07:23:25;15.13;;;5.53;;
27558;SDS011;15002;52.028;5.670;2024-03-25T07:25:50;15.45;;;5.38;;
27558;SDS011;15002;52.028;5.670;2024-03-25T07:28:16;14.15;;;5.78;;
27558;SDS011;15002;52.028;5.670;2024-03-25T07:30:41;11.98;;;5.78;;
27558;SDS011;15002;52.028;5.670;2024-03-25T07:33:07;16.60;;;4.70;;
27558;SDS011;15002;52.028;5.670;2024-03-25T07:35:33;17.75;;;5.63;;
27558;SDS011;15002;52.028;5.670;2024-03-25T07:37:58;18.65;;;5.78;;
27558;SDS011;15002;52.028;5.670;2024-03-25T07:40:24;16.20;;;5.47;;
27558;SDS011;15002;52.028;5.670;2024-03-25T07:42:50;12.95;;;4.82;;
27558;SDS011;15002;52.028;5.670;2024-03-25T07:45:15;13.82;;;5.45;;
27558;SDS011;15002;52.028;5.670;2024-03-25T07:47:41;16.63;;;5.72;;
27558;SDS011;15002;52.028;5.670;2024-03-25T07:50:07;18.88;;;5.53;;
27558;SDS011;15002;52.028;5.670;2024-03-25T07:52:33;17.10;;;5.82;;
27558;SDS011;15002;52.028;5.670;2024-03-25T07:55:01;22.00;;;6.25;;
27558;SDS011;15002;52.028;5.670;2024-03-25T07:57:27;15.75;;;6.28;;
27558;SDS011;15002;52.028;5.670;2024-03-25T07:59:52;16.30;;;5.78;;
27558;SDS011;15002;52.028;5.670;2024-03-25T08:02:18;17.17;;;5.53;;
27558;SDS011;15002;52.028;5.670;2024-03-25T08:04:44;16.00;;;4.65;;
27558;SDS011;15002;52.028;5.670;2024-03-25T08:07:09;16.63;;;4.20;;
27558;SDS011;15002;52.028;5.670;2024-03-25T08:09:35;15.55;;;4.07;;
27558;SDS011;15002;52.028;5.670;2024-03-25T08:12:01;15.43;;;4.22;;
27558;SDS011;15002;52.028;5.670;2024-03-25T08:14:26;17.38;;;4.35;;
27558;SDS011;15002;52.028;5.670;2024-03-25T08:16:52;13.48;;;4.07;;
27558;SDS011;15002;52.028;5.670;2024-03-25T08:19:17;14.90;;;3.78;;
27558;SDS011;15002;52.028;5.670;2024-03-25T08:21:43;15.35;;;3.97;;
27558;SDS011;15002;52.028;5.670;2024-03-25T08:24:09;17.75;;;3.85;;
27558;SDS011;15002;52.028;5.670;2024-03-25T08:26:34;16.10;;;3.85;;
27558;SDS011;15002;52.028;5.670;2024-03-25T08:29:00;16.95;;;4.05;;
27558;SDS011;15002;52.028;5.670;2024-03-25T08:31:26;15.32;;;3.83;;
27558;SDS011;15002;52.028;5.670;2024-03-25T08:33:51;18.25;;;3.92;;
27558;SDS011;15002;52.028;5.670;2024-03-25T08:36:17;13.60;;;3.67;;
27558;SDS011;15002;52.028;5.670;2024-03-25T08:38:43;15.50;;;3.83;;
27558;SDS011;15002;52.028;5.670;2024-03-25T08:41:09;16.50;;;3.80;;
27558;SDS011;15002;52.028;5.670;2024-03-25T08:43:35;14.20;;;3.85;;
27558;SDS011;15002;52.028;5.670;2024-03-25T08:46:00;18.88;;;3.95;;
27558;SDS011;15002;52.028;5.670;2024-03-25T08:48:26;13.45;;;4.32;;
27558;SDS011;15002;52.028;5.670;2024-03-25T08:50:52;12.70;;;4.07;;
27558;SDS011;15002;52.028;5.670;2024-03-25T08:53:17;14.75;;;3.65;;
27558;SDS011;15002;52.028;5.670;2024-03-25T08:55:46;14.38;;;3.95;;
27558;SDS011;15002;52.028;5.670;2024-03-25T08:58:12;14.15;;;4.10;;
27558;SDS011;15002;52.028;5.670;2024-03-25T09:00:38;18.23;;;4.30;;
27558;SDS011;15002;52.028;5.670;2024-03-25T09:03:04;15.27;;;4.85;;
27558;SDS011;15002;52.028;5.670;2024-03-25T09:05:30;17.27;;;4.40;;
27558;SDS011;15002;52.028;5.670;2024-03-25T09:07:55;14.68;;;4.22;;
27558;SDS011;15002;52.028;5.670;2024-03-25T09:10:23;13.30;;;3.55;;
27558;SDS011;15002;52.028;5.670;2024-03-25T09:13:08;14.93;;;4.05;;
27558;SDS011;15002;52.028;5.670;2024-03-25T09:15:33;17.02;;;4.35;;
27558;SDS011;15002;52.028;5.670;2024-03-25T09:17:59;16.90;;;4.72;;
27558;SDS011;15002;52.028;5.670;2024-03-25T09:20:25;14.43;;;5.00;;
27558;SDS011;15002;52.028;5.670;2024-03-25T09:22:51;14.48;;;5.32;;
27558;SDS011;15002;52.028;5.670;2024-03-25T09:25:17;15.88;;;4.50;;
27558;SDS011;15002;52.028;5.670;2024-03-25T09:27:46;13.65;;;4.47;;
27558;SDS011;15002;52.028;5.670;2024-03-25T09:30:13;16.80;;;4.20;;
27558;SDS011;15002;52.028;5.670;2024-03-25T09:32:39;13.52;;;3.85;;
27558;SDS011;15002;52.028;5.670;2024-03-25T09:35:06;14.90;;;3.85;;
27558;SDS011;15002;52.028;5.670;2024-03-25T09:37:32;10.82;;;2.40;;
27558;SDS011;15002;52.028;5.670;2024-03-25T09:39:58;10.73;;;2.38;;
27558;SDS011;15002;52.028;5.670;2024-03-25T09:45:10;13.55;;;3.88;;
27558;SDS011;15002;52.028;5.670;2024-03-25T09:47:36;16.80;;;3.63;;
27558;SDS011;15002;52.028;5.670;2024-03-25T09:50:04;14.93;;;4.25;;
27558;SDS011;15002;52.028;5.670;2024-03-25T09:52:33;13.65;;;4.18;;
27558;SDS011;15002;52.028;5.670;2024-03-25T09:54:59;16.63;;;4.45;;
27558;SDS011;15002;52.028;5.670;2024-03-25T09:57:24;11.20;;;3.97;;
27558;SDS011;15002;52.028;5.670;2024-03-25T09:59:51;14.23;;;4.32;;
27558;SDS011;15002;52.028;5.670;2024-03-25T10:02:17;14.68;;;4.20;;
27558;SDS011;15002;52.028;5.670;2024-03-25T10:04:44;14.38;;;3.78;;
27558;SDS011;15002;52.028;5.670;2024-03-25T10:07:12;9.35;;;3.60;;
27558;SDS011;15002;52.028;5.670;2024-03-25T10:09:47;12.85;;;3.92;;
27558;SDS011;15002;52.028;5.670;2024-03-25T10:12:13;12.65;;;3.67;;
27558;SDS011;15002;52.028;5.670;2024-03-25T10:14:42;11.30;;;3.60;;
27558;SDS011;15002;52.028;5.670;2024-03-25T10:17:08;13.35;;;3.80;;
27558;SDS011;15002;52.028;5.670;2024-03-25T10:19:33;11.75;;;4.18;;
27558;SDS011;15002;52.028;5.670;2024-03-25T10:22:06;11.50;;;3.28;;
27558;SDS011;15002;52.028;5.670;2024-03-25T10:24:39;13.35;;;3.72;;
27558;SDS011;15002;52.028;5.670;2024-03-25T10:27:19;13.68;;;3.63;;
27558;SDS011;15002;52.028;5.670;2024-03-25T10:29:55;12.40;;;3.35;;
27558;SDS011;15002;52.028;5.670;2024-03-25T10:32:21;13.60;;;3.50;;
27558;SDS011;15002;52.028;5.670;2024-03-25T10:34:49;14.75;;;4.20;;
27558;SDS011;15002;52.028;5.670;2024-03-25T10:37:15;12.82;;;3.80;;
27558;SDS011;15002;52.028;5.670;2024-03-25T10:39:49;11.02;;;3.67;;
27558;SDS011;15002;52.028;5.670;2024-03-25T10:42:18;11.45;;;3.55;;
27558;SDS011;15002;52.028;5.670;2024-03-25T10:44:44;11.05;;;3.50;;
27558;SDS011;15002;52.028;5.670;2024-03-25T10:47:11;15.05;;;4.15;;
27558;SDS011;15002;52.028;5.670;2024-03-25T10:49:50;14.05;;;4.57;;
27558;SDS011;15002;52.028;5.670;2024-03-25T10:52:22;14.55;;;4.20;;
27558;SDS011;15002;52.028;5.670;2024-03-25T10:54:49;13.45;;;3.78;;
27558;SDS011;15002;52.028;5.670;2024-03-25T10:57:16;8.85;;;3.50;;
27558;SDS011;15002;52.028;5.670;2024-03-25T10:59:42;10.60;;;3.95;;
27558;SDS011;15002;52.028;5.670;2024-03-25T11:02:08;10.63;;;4.05;;
27558;SDS011;15002;52.028;5.670;2024-03-25T11:04:35;10.45;;;4.00;;
27558;SDS011;15002;52.028;5.670;2024-03-25T11:07:11;15.25;;;3.28;;
27558;SDS011;15002;52.028;5.670;2024-03-25T11:09:38;10.65;;;3.42;;
27558;SDS011;15002;52.028;5.670;2024-03-25T11:12:05;6.72;;;3.30;;
27558;SDS011;15002;52.028;5.670;2024-03-25T11:14:32;12.35;;;3.78;;
27558;SDS011;15002;52.028;5.670;2024-03-25T11:16:59;8.63;;;3.15;;
27558;SDS011;15002;52.028;5.670;2024-03-25T11:19:29;11.48;;;3.08;;
27558;SDS011;15002;52.028;5.670;2024-03-25T11:22:05;9.90;;;3.20;;
27558;SDS011;15002;52.028;5.670;2024-03-25T11:24:35;10.10;;;2.83;;
27558;SDS011;15002;52.028;5.670;2024-03-25T11:27:07;7.22;;;3.15;;
27558;SDS011;15002;52.028;5.670;2024-03-25T11:29:36;9.68;;;3.72;;
27558;SDS011;15002;52.028;5.670;2024-03-25T11:32:03;9.90;;;3.20;;
27558;SDS011;15002;52.028;5.670;2024-03-25T11:34:30;7.15;;;3.03;;
27558;SDS011;15002;52.028;5.670;2024-03-25T11:36:55;11.23;;;4.20;;
27558;SDS011;15002;52.028;5.670;2024-03-25T11:39:22;8.80;;;5.07;;
27558;SDS011;15002;52.028;5.670;2024-03-25T11:41:48;8.80;;;4.68;;
27558;SDS011;15002;52.028;5.670;2024-03-25T11:44:14;12.35;;;4.93;;
27558;SDS011;15002;52.028;5.670;2024-03-25T11:46:44;13.68;;;4.57;;
27558;SDS011;15002;52.028;5.670;2024-03-25T11:49:14;11.60;;;5.30;;
27558;SDS011;15002;52.028;5.670;2024-03-25T11:51:43;10.27;;;5.13;;
27558;SDS011;15002;52.028;5.670;2024-03-25T11:54:10;10.85;;;5.35;;
27558;SDS011;15002;52.028;5.670;2024-03-25T11:56:36;10.27;;;5.00;;
27558;SDS011;15002;52.028;5.670;2024-03-25T11:59:06;9.55;;;4.70;;
27558;SDS011;15002;52.028;5.670;2024-03-25T12:01:31;9.75;;;4.30;;
27558;SDS011;15002;52.028;5.670;2024-03-25T12:04:08;10.90;;;4.97;;
27558;SDS011;15002;52.028;5.670;2024-03-25T12:06:35;7.60;;;4.30;;
27558;SDS011;15002;52.028;5.670;2024-03-25T12:09:01;9.30;;;4.35;;
27558;SDS011;15002;52.028;5.670;2024-03-25T12:11:45;9.40;;;4.70;;
27558;SDS011;15002;52.028;5.670;2024-03-25T12:14:11;9.10;;;4.68;;
27558;SDS011;15002;52.028;5.670;2024-03-25T12:16:37;8.05;;;3.00;;
27558;SDS011;15002;52.028;5.670;2024-03-25T12:19:02;6.47;;;3.42;;
27558;SDS011;15002;52.028;5.670;2024-03-25T12:21:28;8.25;;;3.50;;
27558;SDS011;15002;52.028;5.670;2024-03-25T12:23:56;5.97;;;3.40;;
27558;SDS011;15002;52.028;5.670;2024-03-25T12:26:23;12.00;;;3.97;;
27558;SDS011;15002;52.028;5.670;2024-03-25T12:28:49;9.13;;;3.92;;
27558;SDS011;15002;52.028;5.670;2024-03-25T12:31:14;9.38;;;3.88;;
27558;SDS011;15002;52.028;5.670;2024-03-25T12:33:41;12.82;;;3.72;;
27558;SDS011;15002;52.028;5.670;2024-03-25T12:36:08;7.40;;;3.75;;
27558;SDS011;15002;52.028;5.670;2024-03-25T12:38:36;5.82;;;3.92;;
27558;SDS011;15002;52.028;5.670;2024-03-25T12:41:05;10.45;;;3.70;;
27558;SDS011;15002;52.028;5.670;2024-03-25T12:43:36;6.38;;;3.30;;
27558;SDS011;15002;52.028;5.670;2024-03-25T12:46:07;5.65;;;3.17;;
27558;SDS011;15002;52.028;5.670;2024-03-25T12:48:36;6.00;;;3.67;;
27558;SDS011;15002;52.028;5.670;2024-03-25T12:51:02;4.38;;;2.83;;
27558;SDS011;15002;52.028;5.670;2024-03-25T12:53:28;8.95;;;3.33;;
27558;SDS011;15002;52.028;5.670;2024-03-25T12:55:54;5.50;;;2.85;;
27558;SDS011;15002;52.028;5.670;2024-03-25T12:58:19;8.18;;;3.22;;
27558;SDS011;15002;52.028;5.670;2024-03-25T13:00:45;8.45;;;3.13;;
27558;SDS011;15002;52.028;5.670;2024-03-25T13:03:11;5.50;;;2.72;;
27558;SDS011;15002;52.028;5.670;2024-03-25T13:05:38;6.25;;;3.10;;
27558;SDS011;15002;52.028;5.670;2024-03-25T13:08:04;8.70;;;3.33;;
27558;SDS011;15002;52.028;5.670;2024-03-25T13:10:30;5.97;;;3.10;;
27558;SDS011;15002;52.028;5.670;2024-03-25T13:12:56;7.05;;;3.53;;
27558;SDS011;15002;52.028;5.670;2024-03-25T13:15:22;7.40;;;4.05;;
27558;SDS011;15002;52.028;5.670;2024-03-25T13:17:48;10.70;;;4.03;;
27558;SDS011;15002;52.028;5.670;2024-03-25T13:20:14;7.40;;;3.75;;
27558;SDS011;15002;52.028;5.670;2024-03-25T13:22:39;6.68;;;3.95;;
27558;SDS011;15002;52.028;5.670;2024-03-25T13:25:05;7.78;;;3.90;;
27558;SDS011;15002;52.028;5.670;2024-03-25T13:27:32;8.75;;;3.90;;
27558;SDS011;15002;52.028;5.670;2024-03-25T13:29:57;50.33;;;5.90;;
27558;SDS011;15002;52.028;5.670;2024-03-25T13:32:23;9.63;;;3.47;;
27558;SDS011;15002;52.028;5.670;2024-03-25T13:34:49;7.28;;;3.60;;
27558;SDS011;15002;52.028;5.670;2024-03-25T13:37:15;5.97;;;3.00;;
27558;SDS011;15002;52.028;5.670;2024-03-25T13:39:41;6.75;;;3.42;;
27558;SDS011;15002;52.028;5.670;2024-03-25T13:42:06;6.70;;;3.55;;
27558;SDS011;15002;52.028;5.670;2024-03-25T13:44:32;5.97;;;3.83;;
27558;SDS011;15002;52.028;5.670;2024-03-25T13:46:58;7.75;;;3.45;;
27558;SDS011;15002;52.028;5.670;2024-03-25T13:49:23;6.85;;;3.45;;
27558;SDS011;15002;52.028;5.670;2024-03-25T13:51:50;8.68;;;3.65;;
27558;SDS011;15002;52.028;5.670;2024-03-25T13:54:21;6.78;;;3.65;;
27558;SDS011;15002;52.028;5.670;2024-03-25T13:56:47;6.60;;;3.33;;
27558;SDS011;15002;52.028;5.670;2024-03-25T13:59:13;5.90;;;3.90;;
27558;SDS011;15002;52.028;5.670;2024-03-25T14:01:39;6.75;;;3.40;;
27558;SDS011;15002;52.028;5.670;2024-03-25T14:04:05;7.97;;;3.65;;
27558;SDS011;15002;52.028;5.670;2024-03-25T14:06:31;8.05;;;3.30;;
27558;SDS011;15002;52.028;5.670;2024-03-25T14:08:58;14.02;;;3.85;;
27558;SDS011;15002;52.028;5.670;2024-03-25T14:11:24;8.25;;;3.63;;
27558;SDS011;15002;52.028;5.670;2024-03-25T14:13:50;6.70;;;3.85;;
27558;SDS011;15002;52.028;5.670;2024-03-25T14:16:15;7.75;;;3.35;;
27558;SDS011;15002;52.028;5.670;2024-03-25T14:18:41;7.20;;;3.03;;
27558;SDS011;15002;52.028;5.670;2024-03-25T14:21:06;7.13;;;3.15;;
27558;SDS011;15002;52.028;5.670;2024-03-25T14:23:32;10.57;;;3.40;;
27558;SDS011;15002;52.028;5.670;2024-03-25T14:25:58;5.43;;;3.40;;
27558;SDS011;15002;52.028;5.670;2024-03-25T14:28:23;7.28;;;3.25;;
27558;SDS011;15002;52.028;5.670;2024-03-25T14:30:49;4.82;;;2.90;;
27558;SDS011;15002;52.028;5.670;2024-03-25T14:33:15;5.32;;;3.10;;
27558;SDS011;15002;52.028;5.670;2024-03-25T14:35:41;6.57;;;2.85;;